sensor_id;sensor_type;location;lat;lon;timestamp;P1;durP1;ratioP1;P2;durP2;ratioP2
70838;SDS011;58464;52.298;4.852;2023-05-15T00:01:35;28.70;;;19.98;;
70838;SDS011;58464;52.298;4.852;2023-05-15T00:04:00;44.83;;;20.53;;
70838;SDS011;58464;52.298;4.852;2023-05-15T00:06:26;35.35;;;20.65;;
70838;SDS011;58464;52.298;4.852;2023-05-15T00:08:52;29.98;;;21.05;;
70838;SDS011;58464;52.298;4.852;2023-05-15T00:11:17;31.40;;;20.52;;
70838;SDS011;58464;52.298;4.852;2023-05-15T00:13:42;32.67;;;20.73;;
70838;SDS011;58464;52.298;4.852;2023-05-15T00:16:08;33.83;;;21.15;;
70838;SDS011;58464;52.298;4.852;2023-05-15T00:18:33;37.28;;;20.67;;
70838;SDS011;58464;52.298;4.852;2023-05-15T00:20:59;34.13;;;21.52;;
70838;SDS011;58464;52.298;4.852;2023-05-15T00:23:24;30.92;;;19.50;;
70838;SDS011;58464;52.298;4.852;2023-05-15T00:25:50;36.13;;;21.13;;
70838;SDS011;58464;52.298;4.852;2023-05-15T00:28:15;35.50;;;20.88;;
70838;SDS011;58464;52.298;4.852;2023-05-15T00:30:40;28.70;;;19.00;;
70838;SDS011;58464;52.298;4.852;2023-05-15T00:33:06;31.02;;;19.77;;
70838;SDS011;58464;52.298;4.852;2023-05-15T00:35:31;32.13;;;20.05;;
70838;SDS011;58464;52.298;4.852;2023-05-15T00:37:56;34.88;;;21.48;;
70838;SDS011;58464;52.298;4.852;2023-05-15T00:40:22;44.57;;;20.67;;
70838;SDS011;58464;52.298;4.852;2023-05-15T00:42:48;31.95;;;21.10;;
70838;SDS011;58464;52.298;4.852;2023-05-15T00:45:14;33.28;;;21.42;;
70838;SDS011;58464;52.298;4.852;2023-05-15T00:47:40;32.15;;;18.13;;
70838;SDS011;58464;52.298;4.852;2023-05-15T00:50:06;27.50;;;18.48;;
70838;SDS011;58464;52.298;4.852;2023-05-15T00:52:32;32.55;;;18.05;;
70838;SDS011;58464;52.298;4.852;2023-05-15T00:54:57;23.70;;;17.10;;
70838;SDS011;58464;52.298;4.852;2023-05-15T00:57:23;30.73;;;18.23;;
70838;SDS011;58464;52.298;4.852;2023-05-15T00:59:50;31.80;;;19.92;;
70838;SDS011;58464;52.298;4.852;2023-05-15T01:02:15;30.95;;;20.80;;
70838;SDS011;58464;52.298;4.852;2023-05-15T01:04:42;36.03;;;21.17;;
70838;SDS011;58464;52.298;4.852;2023-05-15T01:07:07;35.97;;;20.30;;
70838;SDS011;58464;52.298;4.852;2023-05-15T01:09:32;30.73;;;19.43;;
70838;SDS011;58464;52.298;4.852;2023-05-15T01:11:58;41.22;;;18.88;;
70838;SDS011;58464;52.298;4.852;2023-05-15T01:14:24;30.67;;;18.65;;
70838;SDS011;58464;52.298;4.852;2023-05-15T01:16:49;20.97;;;13.43;;
70838;SDS011;58464;52.298;4.852;2023-05-15T01:19:15;29.42;;;16.73;;
70838;SDS011;58464;52.298;4.852;2023-05-15T01:21:46;33.47;;;18.97;;
70838;SDS011;58464;52.298;4.852;2023-05-15T01:27:16;35.25;;;19.48;;
70838;SDS011;58464;52.298;4.852;2023-05-15T01:32:08;30.17;;;18.87;;
70838;SDS011;58464;52.298;4.852;2023-05-15T01:34:55;33.90;;;21.05;;
70838;SDS011;58464;52.298;4.852;2023-05-15T01:37:23;41.03;;;20.08;;
70838;SDS011;58464;52.298;4.852;2023-05-15T01:39:48;33.80;;;19.55;;
70838;SDS011;58464;52.298;4.852;2023-05-15T01:42:15;27.00;;;18.23;;
70838;SDS011;58464;52.298;4.852;2023-05-15T01:44:43;36.92;;;18.52;;
70838;SDS011;58464;52.298;4.852;2023-05-15T01:47:11;27.15;;;15.65;;
70838;SDS011;58464;52.298;4.852;2023-05-15T01:49:37;21.80;;;12.40;;
70838;SDS011;58464;52.298;4.852;2023-05-15T01:52:25;33.28;;;17.55;;
70838;SDS011;58464;52.298;4.852;2023-05-15T01:54:49;25.52;;;16.90;;
70838;SDS011;58464;52.298;4.852;2023-05-15T01:57:15;23.10;;;15.07;;
70838;SDS011;58464;52.298;4.852;2023-05-15T01:59:40;25.33;;;13.90;;
70838;SDS011;58464;52.298;4.852;2023-05-15T02:02:06;28.20;;;16.45;;
70838;SDS011;58464;52.298;4.852;2023-05-15T02:04:32;29.85;;;17.90;;
70838;SDS011;58464;52.298;4.852;2023-05-15T02:06:57;31.67;;;14.38;;
70838;SDS011;58464;52.298;4.852;2023-05-15T02:09:23;22.00;;;14.88;;
70838;SDS011;58464;52.298;4.852;2023-05-15T02:11:49;25.73;;;15.27;;
70838;SDS011;58464;52.298;4.852;2023-05-15T02:14:15;29.33;;;18.33;;
70838;SDS011;58464;52.298;4.852;2023-05-15T02:16:41;24.33;;;16.30;;
70838;SDS011;58464;52.298;4.852;2023-05-15T02:19:06;26.60;;;15.27;;
70838;SDS011;58464;52.298;4.852;2023-05-15T02:21:31;23.67;;;14.67;;
70838;SDS011;58464;52.298;4.852;2023-05-15T02:23:56;27.20;;;18.27;;
70838;SDS011;58464;52.298;4.852;2023-05-15T02:26:25;28.03;;;16.50;;
70838;SDS011;58464;52.298;4.852;2023-05-15T02:31:42;13.18;;;8.65;;
70838;SDS011;58464;52.298;4.852;2023-05-15T02:36:36;19.30;;;11.27;;
70838;SDS011;58464;52.298;4.852;2023-05-15T02:39:02;18.33;;;10.88;;
70838;SDS011;58464;52.298;4.852;2023-05-15T02:41:28;21.98;;;13.98;;
70838;SDS011;58464;52.298;4.852;2023-05-15T02:43:54;17.77;;;11.10;;
70838;SDS011;58464;52.298;4.852;2023-05-15T02:46:20;26.30;;;15.32;;
70838;SDS011;58464;52.298;4.852;2023-05-15T02:48:45;39.25;;;19.40;;
70838;SDS011;58464;52.298;4.852;2023-05-15T02:51:11;37.08;;;22.38;;
70838;SDS011;58464;52.298;4.852;2023-05-15T02:53:39;25.30;;;16.23;;
70838;SDS011;58464;52.298;4.852;2023-05-15T02:56:05;17.98;;;10.35;;
70838;SDS011;58464;52.298;4.852;2023-05-15T02:58:31;12.30;;;8.43;;
70838;SDS011;58464;52.298;4.852;2023-05-15T03:00:56;15.38;;;9.88;;
70838;SDS011;58464;52.298;4.852;2023-05-15T03:03:21;14.93;;;9.43;;
70838;SDS011;58464;52.298;4.852;2023-05-15T03:05:46;16.17;;;9.10;;
70838;SDS011;58464;52.298;4.852;2023-05-15T03:08:12;20.40;;;10.93;;
70838;SDS011;58464;52.298;4.852;2023-05-15T03:10:37;22.00;;;13.75;;
70838;SDS011;58464;52.298;4.852;2023-05-15T03:13:02;22.63;;;14.50;;
70838;SDS011;58464;52.298;4.852;2023-05-15T03:15:27;23.40;;;14.95;;
70838;SDS011;58464;52.298;4.852;2023-05-15T03:17:53;21.05;;;13.93;;
70838;SDS011;58464;52.298;4.852;2023-05-15T03:20:18;33.37;;;16.50;;
70838;SDS011;58464;52.298;4.852;2023-05-15T03:22:43;22.60;;;14.98;;
70838;SDS011;58464;52.298;4.852;2023-05-15T03:25:09;38.93;;;13.93;;
70838;SDS011;58464;52.298;4.852;2023-05-15T03:27:35;21.80;;;13.88;;
70838;SDS011;58464;52.298;4.852;2023-05-15T03:30:00;22.90;;;15.23;;
70838;SDS011;58464;52.298;4.852;2023-05-15T03:32:25;20.42;;;12.27;;
70838;SDS011;58464;52.298;4.852;2023-05-15T03:34:51;22.23;;;13.87;;
70838;SDS011;58464;52.298;4.852;2023-05-15T03:37:16;22.60;;;14.57;;
70838;SDS011;58464;52.298;4.852;2023-05-15T03:39:41;18.52;;;6.53;;
70838;SDS011;58464;52.298;4.852;2023-05-15T03:42:06;8.18;;;6.13;;
70838;SDS011;58464;52.298;4.852;2023-05-15T03:44:32;19.83;;;13.47;;
70838;SDS011;58464;52.298;4.852;2023-05-15T03:46:57;21.50;;;12.98;;
70838;SDS011;58464;52.298;4.852;2023-05-15T03:49:22;22.37;;;15.00;;
70838;SDS011;58464;52.298;4.852;2023-05-15T03:51:47;12.53;;;9.63;;
70838;SDS011;58464;52.298;4.852;2023-05-15T03:54:13;22.47;;;14.60;;
70838;SDS011;58464;52.298;4.852;2023-05-15T03:56:38;23.20;;;17.30;;
70838;SDS011;58464;52.298;4.852;2023-05-15T03:59:03;18.42;;;11.90;;
70838;SDS011;58464;52.298;4.852;2023-05-15T04:01:28;17.07;;;10.80;;
70838;SDS011;58464;52.298;4.852;2023-05-15T04:03:53;30.90;;;18.27;;
70838;SDS011;58464;52.298;4.852;2023-05-15T04:06:19;25.13;;;14.23;;
70838;SDS011;58464;52.298;4.852;2023-05-15T04:08:44;19.60;;;10.70;;
70838;SDS011;58464;52.298;4.852;2023-05-15T04:11:09;27.27;;;17.03;;
70838;SDS011;58464;52.298;4.852;2023-05-15T04:13:35;28.45;;;18.38;;
70838;SDS011;58464;52.298;4.852;2023-05-15T04:16:01;22.97;;;15.50;;
70838;SDS011;58464;52.298;4.852;2023-05-15T04:18:26;28.67;;;19.20;;
70838;SDS011;58464;52.298;4.852;2023-05-15T04:20:51;30.17;;;21.00;;
70838;SDS011;58464;52.298;4.852;2023-05-15T04:23:17;26.95;;;18.90;;
70838;SDS011;58464;52.298;4.852;2023-05-15T04:25:42;32.40;;;23.20;;
70838;SDS011;58464;52.298;4.852;2023-05-15T04:28:10;38.63;;;25.00;;
70838;SDS011;58464;52.298;4.852;2023-05-15T04:30:35;32.47;;;17.95;;
70838;SDS011;58464;52.298;4.852;2023-05-15T04:33:01;29.27;;;19.42;;
70838;SDS011;58464;52.298;4.852;2023-05-15T04:35:26;25.10;;;18.17;;
70838;SDS011;58464;52.298;4.852;2023-05-15T04:37:51;19.63;;;14.40;;
70838;SDS011;58464;52.298;4.852;2023-05-15T04:40:16;29.23;;;18.00;;
70838;SDS011;58464;52.298;4.852;2023-05-15T04:42:42;24.48;;;13.88;;
70838;SDS011;58464;52.298;4.852;2023-05-15T04:45:07;12.10;;;8.43;;
70838;SDS011;58464;52.298;4.852;2023-05-15T04:47:33;17.73;;;10.48;;
70838;SDS011;58464;52.298;4.852;2023-05-15T04:49:58;13.23;;;9.68;;
70838;SDS011;58464;52.298;4.852;2023-05-15T04:52:24;11.53;;;8.57;;
70838;SDS011;58464;52.298;4.852;2023-05-15T04:54:49;25.70;;;18.00;;
70838;SDS011;58464;52.298;4.852;2023-05-15T04:57:16;32.92;;;19.88;;
70838;SDS011;58464;52.298;4.852;2023-05-15T04:59:42;15.48;;;9.85;;
70838;SDS011;58464;52.298;4.852;2023-05-15T05:02:08;18.73;;;12.43;;
70838;SDS011;58464;52.298;4.852;2023-05-15T05:04:33;20.17;;;13.18;;
70838;SDS011;58464;52.298;4.852;2023-05-15T05:06:59;32.50;;;19.83;;
70838;SDS011;58464;52.298;4.852;2023-05-15T05:09:24;25.70;;;15.90;;
70838;SDS011;58464;52.298;4.852;2023-05-15T05:11:49;31.37;;;18.93;;
70838;SDS011;58464;52.298;4.852;2023-05-15T05:14:15;29.40;;;19.77;;
70838;SDS011;58464;52.298;4.852;2023-05-15T05:16:40;24.88;;;16.67;;
70838;SDS011;58464;52.298;4.852;2023-05-15T05:19:06;32.72;;;19.05;;
70838;SDS011;58464;52.298;4.852;2023-05-15T05:21:31;29.48;;;19.55;;
70838;SDS011;58464;52.298;4.852;2023-05-15T05:23:57;33.10;;;16.17;;
70838;SDS011;58464;52.298;4.852;2023-05-15T05:26:23;30.02;;;18.38;;
70838;SDS011;58464;52.298;4.852;2023-05-15T05:28:48;26.60;;;16.38;;
70838;SDS011;58464;52.298;4.852;2023-05-15T05:31:13;17.70;;;12.90;;
70838;SDS011;58464;52.298;4.852;2023-05-15T05:33:39;32.03;;;22.17;;
70838;SDS011;58464;52.298;4.852;2023-05-15T05:36:04;30.95;;;21.20;;
70838;SDS011;58464;52.298;4.852;2023-05-15T05:38:30;34.33;;;20.73;;
70838;SDS011;58464;52.298;4.852;2023-05-15T05:40:56;31.27;;;21.35;;
70838;SDS011;58464;52.298;4.852;2023-05-15T05:43:21;28.05;;;19.90;;
70838;SDS011;58464;52.298;4.852;2023-05-15T05:45:46;23.67;;;14.27;;
70838;SDS011;58464;52.298;4.852;2023-05-15T05:48:12;29.83;;;16.80;;
70838;SDS011;58464;52.298;4.852;2023-05-15T05:50:37;34.55;;;18.35;;
70838;SDS011;58464;52.298;4.852;2023-05-15T05:53:02;41.17;;;18.52;;
70838;SDS011;58464;52.298;4.852;2023-05-15T05:55:28;23.50;;;13.03;;
70838;SDS011;58464;52.298;4.852;2023-05-15T05:57:53;27.40;;;14.10;;
70838;SDS011;58464;52.298;4.852;2023-05-15T06:00:18;29.30;;;18.40;;
70838;SDS011;58464;52.298;4.852;2023-05-15T06:02:44;27.02;;;17.80;;
70838;SDS011;58464;52.298;4.852;2023-05-15T06:05:09;32.00;;;18.40;;
70838;SDS011;58464;52.298;4.852;2023-05-15T06:07:34;30.80;;;12.70;;
70838;SDS011;58464;52.298;4.852;2023-05-15T06:09:59;28.02;;;15.70;;
70838;SDS011;58464;52.298;4.852;2023-05-15T06:12:25;19.98;;;13.32;;
70838;SDS011;58464;52.298;4.852;2023-05-15T06:14:52;20.70;;;12.65;;
70838;SDS011;58464;52.298;4.852;2023-05-15T06:17:17;23.07;;;15.50;;
70838;SDS011;58464;52.298;4.852;2023-05-15T06:19:42;21.57;;;16.30;;
70838;SDS011;58464;52.298;4.852;2023-05-15T06:22:07;31.73;;;19.33;;
70838;SDS011;58464;52.298;4.852;2023-05-15T06:24:33;34.65;;;19.38;;
70838;SDS011;58464;52.298;4.852;2023-05-15T06:26:58;29.17;;;17.83;;
70838;SDS011;58464;52.298;4.852;2023-05-15T06:29:24;26.98;;;18.75;;
70838;SDS011;58464;52.298;4.852;2023-05-15T06:31:49;34.55;;;19.65;;
70838;SDS011;58464;52.298;4.852;2023-05-15T06:34:14;33.40;;;20.03;;
70838;SDS011;58464;52.298;4.852;2023-05-15T06:36:39;27.60;;;19.77;;
70838;SDS011;58464;52.298;4.852;2023-05-15T06:39:05;36.27;;;19.47;;
70838;SDS011;58464;52.298;4.852;2023-05-15T06:41:31;30.20;;;19.52;;
70838;SDS011;58464;52.298;4.852;2023-05-15T06:43:56;31.58;;;18.95;;
70838;SDS011;58464;52.298;4.852;2023-05-15T06:46:21;31.20;;;19.17;;
70838;SDS011;58464;52.298;4.852;2023-05-15T06:48:46;32.87;;;19.87;;
70838;SDS011;58464;52.298;4.852;2023-05-15T06:51:12;36.45;;;20.92;;
70838;SDS011;58464;52.298;4.852;2023-05-15T06:53:37;29.10;;;19.88;;
70838;SDS011;58464;52.298;4.852;2023-05-15T06:56:02;36.73;;;21.23;;
70838;SDS011;58464;52.298;4.852;2023-05-15T06:58:28;44.55;;;20.77;;
70838;SDS011;58464;52.298;4.852;2023-05-15T07:00:53;49.50;;;20.37;;
70838;SDS011;58464;52.298;4.852;2023-05-15T07:03:18;40.83;;;20.60;;
70838;SDS011;58464;52.298;4.852;2023-05-15T07:05:43;33.77;;;19.93;;
70838;SDS011;58464;52.298;4.852;2023-05-15T07:08:08;23.03;;;15.43;;
70838;SDS011;58464;52.298;4.852;2023-05-15T07:10:34;28.17;;;15.00;;
70838;SDS011;58464;52.298;4.852;2023-05-15T07:12:59;33.80;;;22.40;;
70838;SDS011;58464;52.298;4.852;2023-05-15T07:15:24;19.53;;;14.17;;
70838;SDS011;58464;52.298;4.852;2023-05-15T07:17:49;40.83;;;20.87;;
70838;SDS011;58464;52.298;4.852;2023-05-15T07:20:15;30.38;;;20.92;;
70838;SDS011;58464;52.298;4.852;2023-05-15T07:22:40;38.05;;;17.02;;
70838;SDS011;58464;52.298;4.852;2023-05-15T07:25:06;33.33;;;14.43;;
70838;SDS011;58464;52.298;4.852;2023-05-15T07:27:31;28.00;;;18.45;;
70838;SDS011;58464;52.298;4.852;2023-05-15T07:29:56;32.27;;;17.93;;
70838;SDS011;58464;52.298;4.852;2023-05-15T07:32:21;25.02;;;16.23;;
70838;SDS011;58464;52.298;4.852;2023-05-15T07:34:47;29.20;;;16.70;;
70838;SDS011;58464;52.298;4.852;2023-05-15T07:37:12;30.80;;;18.87;;
70838;SDS011;58464;52.298;4.852;2023-05-15T07:39:37;37.93;;;22.30;;
70838;SDS011;58464;52.298;4.852;2023-05-15T07:42:02;33.00;;;15.77;;
70838;SDS011;58464;52.298;4.852;2023-05-15T07:44:28;26.58;;;14.75;;
70838;SDS011;58464;52.298;4.852;2023-05-15T07:46:53;38.63;;;23.93;;
70838;SDS011;58464;52.298;4.852;2023-05-15T07:49:19;55.65;;;28.83;;
70838;SDS011;58464;52.298;4.852;2023-05-15T07:51:44;41.43;;;25.47;;
70838;SDS011;58464;52.298;4.852;2023-05-15T07:54:09;50.63;;;28.33;;
70838;SDS011;58464;52.298;4.852;2023-05-15T07:56:34;55.47;;;31.55;;
70838;SDS011;58464;52.298;4.852;2023-05-15T07:59:00;59.53;;;34.43;;
70838;SDS011;58464;52.298;4.852;2023-05-15T08:01:25;49.20;;;31.60;;
70838;SDS011;58464;52.298;4.852;2023-05-15T08:03:50;62.88;;;34.92;;
70838;SDS011;58464;52.298;4.852;2023-05-15T08:06:15;60.97;;;36.87;;
70838;SDS011;58464;52.298;4.852;2023-05-15T08:08:40;58.57;;;29.87;;
70838;SDS011;58464;52.298;4.852;2023-05-15T08:11:06;66.10;;;35.33;;
70838;SDS011;58464;52.298;4.852;2023-05-15T08:13:31;69.93;;;35.20;;
70838;SDS011;58464;52.298;4.852;2023-05-15T08:15:56;45.30;;;23.85;;
70838;SDS011;58464;52.298;4.852;2023-05-15T08:18:21;47.80;;;26.05;;
70838;SDS011;58464;52.298;4.852;2023-05-15T08:20:47;57.70;;;32.28;;
70838;SDS011;58464;52.298;4.852;2023-05-15T08:23:13;59.20;;;33.17;;
70838;SDS011;58464;52.298;4.852;2023-05-15T08:25:38;63.60;;;33.15;;
70838;SDS011;58464;52.298;4.852;2023-05-15T08:28:03;55.87;;;30.53;;
70838;SDS011;58464;52.298;4.852;2023-05-15T08:30:28;38.70;;;22.63;;
70838;SDS011;58464;52.298;4.852;2023-05-15T08:32:54;51.00;;;29.00;;
70838;SDS011;58464;52.298;4.852;2023-05-15T08:35:19;73.00;;;35.38;;
70838;SDS011;58464;52.298;4.852;2023-05-15T08:37:44;45.40;;;23.83;;
70838;SDS011;58464;52.298;4.852;2023-05-15T08:40:10;42.00;;;24.90;;
70838;SDS011;58464;52.298;4.852;2023-05-15T08:42:48;40.08;;;19.27;;
70838;SDS011;58464;52.298;4.852;2023-05-15T08:45:14;50.85;;;31.60;;
70838;SDS011;58464;52.298;4.852;2023-05-15T08:47:40;51.73;;;28.67;;
70838;SDS011;58464;52.298;4.852;2023-05-15T08:50:07;48.28;;;24.63;;
70838;SDS011;58464;52.298;4.852;2023-05-15T08:52:34;38.30;;;20.88;;
70838;SDS011;58464;52.298;4.852;2023-05-15T08:54:59;54.70;;;31.52;;
70838;SDS011;58464;52.298;4.852;2023-05-15T08:57:25;48.78;;;28.55;;
70838;SDS011;58464;52.298;4.852;2023-05-15T08:59:52;49.88;;;29.30;;
70838;SDS011;58464;52.298;4.852;2023-05-15T09:02:18;76.82;;;28.35;;
70838;SDS011;58464;52.298;4.852;2023-05-15T09:04:43;53.75;;;26.38;;
70838;SDS011;58464;52.298;4.852;2023-05-15T09:07:08;51.20;;;29.02;;
70838;SDS011;58464;52.298;4.852;2023-05-15T09:09:35;45.35;;;25.15;;
70838;SDS011;58464;52.298;4.852;2023-05-15T09:12:01;48.88;;;24.88;;
70838;SDS011;58464;52.298;4.852;2023-05-15T09:14:28;38.63;;;23.65;;
70838;SDS011;58464;52.298;4.852;2023-05-15T09:16:53;34.85;;;20.00;;
70838;SDS011;58464;52.298;4.852;2023-05-15T09:19:19;35.13;;;17.17;;
70838;SDS011;58464;52.298;4.852;2023-05-15T09:21:47;35.95;;;20.75;;
70838;SDS011;58464;52.298;4.852;2023-05-15T09:24:19;33.85;;;19.40;;
70838;SDS011;58464;52.298;4.852;2023-05-15T09:26:59;24.45;;;13.75;;
70838;SDS011;58464;52.298;4.852;2023-05-15T09:29:26;21.02;;;10.80;;
70838;SDS011;58464;52.298;4.852;2023-05-15T09:31:51;27.67;;;17.52;;
70838;SDS011;58464;52.298;4.852;2023-05-15T09:34:17;25.80;;;14.80;;
70838;SDS011;58464;52.298;4.852;2023-05-15T09:36:42;26.08;;;15.82;;
70838;SDS011;58464;52.298;4.852;2023-05-15T09:39:08;32.38;;;18.83;;
70838;SDS011;58464;52.298;4.852;2023-05-15T09:41:34;22.95;;;14.63;;
70838;SDS011;58464;52.298;4.852;2023-05-15T09:44:05;30.00;;;17.08;;
70838;SDS011;58464;52.298;4.852;2023-05-15T09:46:41;17.88;;;11.05;;
70838;SDS011;58464;52.298;4.852;2023-05-15T09:49:07;21.60;;;14.30;;
70838;SDS011;58464;52.298;4.852;2023-05-15T09:51:33;28.27;;;17.42;;
70838;SDS011;58464;52.298;4.852;2023-05-15T09:53:58;19.88;;;10.88;;
70838;SDS011;58464;52.298;4.852;2023-05-15T09:56:23;25.33;;;17.30;;
70838;SDS011;58464;52.298;4.852;2023-05-15T09:58:52;18.73;;;11.18;;
70838;SDS011;58464;52.298;4.852;2023-05-15T10:01:18;21.50;;;14.70;;
70838;SDS011;58464;52.298;4.852;2023-05-15T10:03:55;30.00;;;17.27;;
70838;SDS011;58464;52.298;4.852;2023-05-15T10:06:20;34.35;;;20.23;;
70838;SDS011;58464;52.298;4.852;2023-05-15T10:08:51;28.27;;;15.60;;
70838;SDS011;58464;52.298;4.852;2023-05-15T10:11:17;28.98;;;17.52;;
70838;SDS011;58464;52.298;4.852;2023-05-15T10:13:43;26.42;;;16.10;;
70838;SDS011;58464;52.298;4.852;2023-05-15T10:16:08;30.27;;;17.60;;
70838;SDS011;58464;52.298;4.852;2023-05-15T10:18:34;23.77;;;14.50;;
70838;SDS011;58464;52.298;4.852;2023-05-15T10:21:01;24.92;;;16.45;;
70838;SDS011;58464;52.298;4.852;2023-05-15T10:23:29;25.98;;;16.35;;
70838;SDS011;58464;52.298;4.852;2023-05-15T10:25:59;25.48;;;17.77;;
70838;SDS011;58464;52.298;4.852;2023-05-15T10:28:27;32.00;;;19.38;;
70838;SDS011;58464;52.298;4.852;2023-05-15T10:30:52;30.38;;;20.17;;
70838;SDS011;58464;52.298;4.852;2023-05-15T10:33:19;27.30;;;17.77;;
70838;SDS011;58464;52.298;4.852;2023-05-15T10:35:44;26.33;;;17.90;;
70838;SDS011;58464;52.298;4.852;2023-05-15T10:38:11;16.65;;;10.25;;
70838;SDS011;58464;52.298;4.852;2023-05-15T10:40:37;31.33;;;18.48;;
70838;SDS011;58464;52.298;4.852;2023-05-15T10:43:04;31.15;;;21.05;;
70838;SDS011;58464;52.298;4.852;2023-05-15T10:45:30;24.00;;;17.80;;
70838;SDS011;58464;52.298;4.852;2023-05-15T10:47:55;27.50;;;15.13;;
70838;SDS011;58464;52.298;4.852;2023-05-15T10:50:21;24.27;;;16.52;;
70838;SDS011;58464;52.298;4.852;2023-05-15T10:52:49;20.70;;;13.60;;
70838;SDS011;58464;52.298;4.852;2023-05-15T10:55:15;20.35;;;11.82;;
70838;SDS011;58464;52.298;4.852;2023-05-15T10:57:41;21.67;;;13.18;;
70838;SDS011;58464;52.298;4.852;2023-05-15T11:00:28;31.00;;;14.75;;
70838;SDS011;58464;52.298;4.852;2023-05-15T11:02:53;29.25;;;15.90;;
70838;SDS011;58464;52.298;4.852;2023-05-15T11:05:21;19.98;;;10.40;;
70838;SDS011;58464;52.298;4.852;2023-05-15T11:10:50;23.43;;;11.63;;
70838;SDS011;58464;52.298;4.852;2023-05-15T11:13:16;15.80;;;10.60;;
70838;SDS011;58464;52.298;4.852;2023-05-15T11:15:42;16.33;;;8.27;;
70838;SDS011;58464;52.298;4.852;2023-05-15T11:18:07;13.90;;;7.28;;
70838;SDS011;58464;52.298;4.852;2023-05-15T11:23:13;12.38;;;6.93;;
70838;SDS011;58464;52.298;4.852;2023-05-15T11:25:38;13.97;;;7.27;;
70838;SDS011;58464;52.298;4.852;2023-05-15T11:28:04;18.42;;;6.22;;
70838;SDS011;58464;52.298;4.852;2023-05-15T11:30:38;10.80;;;5.45;;
70838;SDS011;58464;52.298;4.852;2023-05-15T11:33:09;11.65;;;6.03;;
70838;SDS011;58464;52.298;4.852;2023-05-15T11:35:44;10.20;;;3.85;;
70838;SDS011;58464;52.298;4.852;2023-05-15T11:38:18;6.03;;;4.10;;
70838;SDS011;58464;52.298;4.852;2023-05-15T11:40:47;19.20;;;6.53;;
70838;SDS011;58464;52.298;4.852;2023-05-15T11:45:40;13.63;;;5.80;;
70838;SDS011;58464;52.298;4.852;2023-05-15T11:48:06;15.93;;;6.97;;
70838;SDS011;58464;52.298;4.852;2023-05-15T11:50:32;16.45;;;6.60;;
70838;SDS011;58464;52.298;4.852;2023-05-15T11:53:01;11.52;;;6.93;;
70838;SDS011;58464;52.298;4.852;2023-05-15T11:55:29;15.93;;;8.77;;
70838;SDS011;58464;52.298;4.852;2023-05-15T11:57:56;17.95;;;7.07;;
70838;SDS011;58464;52.298;4.852;2023-05-15T12:00:21;16.10;;;9.25;;
70838;SDS011;58464;52.298;4.852;2023-05-15T12:02:46;22.90;;;12.45;;
70838;SDS011;58464;52.298;4.852;2023-05-15T12:05:12;20.33;;;11.40;;
70838;SDS011;58464;52.298;4.852;2023-05-15T12:07:38;17.80;;;10.23;;
70838;SDS011;58464;52.298;4.852;2023-05-15T12:10:05;21.30;;;10.65;;
70838;SDS011;58464;52.298;4.852;2023-05-15T12:12:30;33.45;;;12.82;;
70838;SDS011;58464;52.298;4.852;2023-05-15T12:14:59;24.95;;;10.95;;
70838;SDS011;58464;52.298;4.852;2023-05-15T12:17:24;19.88;;;6.63;;
70838;SDS011;58464;52.298;4.852;2023-05-15T12:19:49;16.45;;;8.65;;
70838;SDS011;58464;52.298;4.852;2023-05-15T12:22:15;11.15;;;5.82;;
70838;SDS011;58464;52.298;4.852;2023-05-15T12:24:42;13.15;;;5.55;;
70838;SDS011;58464;52.298;4.852;2023-05-15T12:27:08;9.23;;;5.57;;
70838;SDS011;58464;52.298;4.852;2023-05-15T12:29:33;10.40;;;4.80;;
70838;SDS011;58464;52.298;4.852;2023-05-15T12:31:59;10.95;;;5.40;;
70838;SDS011;58464;52.298;4.852;2023-05-15T12:34:24;7.15;;;4.18;;
70838;SDS011;58464;52.298;4.852;2023-05-15T12:36:49;6.72;;;3.42;;
70838;SDS011;58464;52.298;4.852;2023-05-15T12:39:15;7.60;;;2.93;;
70838;SDS011;58464;52.298;4.852;2023-05-15T12:41:40;6.20;;;2.53;;
70838;SDS011;58464;52.298;4.852;2023-05-15T12:44:05;4.00;;;2.33;;
70838;SDS011;58464;52.298;4.852;2023-05-15T12:46:30;11.40;;;3.20;;
70838;SDS011;58464;52.298;4.852;2023-05-15T12:48:59;8.23;;;3.72;;
70838;SDS011;58464;52.298;4.852;2023-05-15T12:51:25;9.70;;;3.95;;
70838;SDS011;58464;52.298;4.852;2023-05-15T12:53:53;15.02;;;4.03;;
70838;SDS011;58464;52.298;4.852;2023-05-15T12:56:19;8.55;;;3.22;;
70838;SDS011;58464;52.298;4.852;2023-05-15T12:58:46;5.88;;;2.70;;
70838;SDS011;58464;52.298;4.852;2023-05-15T13:01:11;6.57;;;3.00;;
70838;SDS011;58464;52.298;4.852;2023-05-15T13:03:36;5.77;;;2.90;;
70838;SDS011;58464;52.298;4.852;2023-05-15T13:06:02;7.57;;;3.05;;
70838;SDS011;58464;52.298;4.852;2023-05-15T13:08:27;6.30;;;2.40;;
70838;SDS011;58464;52.298;4.852;2023-05-15T13:10:56;8.82;;;2.80;;
70838;SDS011;58464;52.298;4.852;2023-05-15T13:13:22;6.07;;;2.30;;
70838;SDS011;58464;52.298;4.852;2023-05-15T13:15:47;4.80;;;2.13;;
70838;SDS011;58464;52.298;4.852;2023-05-15T13:18:14;7.68;;;2.55;;
70838;SDS011;58464;52.298;4.852;2023-05-15T13:20:41;5.63;;;2.50;;
70838;SDS011;58464;52.298;4.852;2023-05-15T13:23:07;8.23;;;2.90;;
70838;SDS011;58464;52.298;4.852;2023-05-15T13:25:32;12.70;;;3.22;;
70838;SDS011;58464;52.298;4.852;2023-05-15T13:27:59;13.85;;;2.95;;
70838;SDS011;58464;52.298;4.852;2023-05-15T13:30:25;10.70;;;2.90;;
70838;SDS011;58464;52.298;4.852;2023-05-15T13:32:50;7.53;;;2.10;;
70838;SDS011;58464;52.298;4.852;2023-05-15T13:35:16;2.95;;;2.05;;
70838;SDS011;58464;52.298;4.852;2023-05-15T13:37:41;6.63;;;3.08;;
70838;SDS011;58464;52.298;4.852;2023-05-15T13:40:08;4.78;;;2.20;;
70838;SDS011;58464;52.298;4.852;2023-05-15T13:42:36;4.70;;;1.60;;
70838;SDS011;58464;52.298;4.852;2023-05-15T13:45:03;3.45;;;1.63;;
70838;SDS011;58464;52.298;4.852;2023-05-15T13:47:29;11.43;;;3.67;;
70838;SDS011;58464;52.298;4.852;2023-05-15T13:49:54;5.70;;;3.33;;
70838;SDS011;58464;52.298;4.852;2023-05-15T13:52:19;7.27;;;3.00;;
70838;SDS011;58464;52.298;4.852;2023-05-15T13:54:44;5.90;;;2.50;;
70838;SDS011;58464;52.298;4.852;2023-05-15T13:57:10;4.57;;;2.40;;
70838;SDS011;58464;52.298;4.852;2023-05-15T13:59:35;3.93;;;2.43;;
70838;SDS011;58464;52.298;4.852;2023-05-15T14:02:00;5.07;;;2.07;;
70838;SDS011;58464;52.298;4.852;2023-05-15T14:04:27;7.17;;;2.63;;
70838;SDS011;58464;52.298;4.852;2023-05-15T14:06:52;3.88;;;2.60;;
70838;SDS011;58464;52.298;4.852;2023-05-15T14:09:17;6.93;;;4.33;;
70838;SDS011;58464;52.298;4.852;2023-05-15T14:11:42;4.88;;;2.58;;
70838;SDS011;58464;52.298;4.852;2023-05-15T14:14:08;5.68;;;2.53;;
70838;SDS011;58464;52.298;4.852;2023-05-15T14:16:33;4.90;;;2.83;;
70838;SDS011;58464;52.298;4.852;2023-05-15T14:18:58;5.77;;;2.87;;
70838;SDS011;58464;52.298;4.852;2023-05-15T14:21:23;8.53;;;4.07;;
70838;SDS011;58464;52.298;4.852;2023-05-15T14:23:49;8.52;;;3.72;;
70838;SDS011;58464;52.298;4.852;2023-05-15T14:26:14;7.38;;;4.15;;
70838;SDS011;58464;52.298;4.852;2023-05-15T14:28:39;6.68;;;3.15;;
70838;SDS011;58464;52.298;4.852;2023-05-15T14:31:04;6.47;;;2.80;;
70838;SDS011;58464;52.298;4.852;2023-05-15T14:33:30;7.97;;;3.00;;
70838;SDS011;58464;52.298;4.852;2023-05-15T14:35:55;6.10;;;3.17;;
70838;SDS011;58464;52.298;4.852;2023-05-15T14:38:20;9.73;;;4.27;;